Time,TemperatureF,DewpointF,PressureIn,WindDirection,WindDirectionDegrees,WindSpeedMPH,WindSpeedGustMPH,Humidity,HourlyPrecipIn,Conditions,Clouds,dailyrainin,SolarRadiationWatts/m^2,SoftwareType,DateUTC
2013-12-14 00:02:00,1.0,-5.0,-100.00,NE,49,1.0,7.0,74,0.00,,,0.03,0.000000,,2013-12-14 06:02:00,
2013-12-14 00:10:00,1.0,-6.0,-100.00,ENE,75,2.0,7.0,73,0.00,,,0.03,0.000000,,2013-12-14 06:10:00,
2013-12-14 00:42:00,1.0,-6.0,-100.00,ENE,75,2.0,7.0,73,0.00,,,0.03,0.000000,,2013-12-14 06:42:00,
2013-12-14 00:52:00,1.0,-6.0,-100.00,ENE,75,2.0,7.0,73,0.00,,,0.03,0.000000,,2013-12-14 06:52:00,
2013-12-14 01:02:00,1.0,-6.0,-100.00,ENE,75,2.0,7.0,73,0.00,,,0.03,0.000000,,2013-12-14 07:02:00,
2013-12-14 01:10:00,2.0,-4.0,-100.00,East,88,2.0,6.0,74,0.00,,,0.03,0.000000,,2013-12-14 07:10:00,
2013-12-14 01:42:00,2.0,-4.0,-100.00,East,88,2.0,6.0,74,0.00,,,0.03,0.000000,,2013-12-14 07:42:00,
2013-12-14 01:52:00,2.0,-4.0,-100.00,East,88,2.0,6.0,74,0.00,,,0.03,0.000000,,2013-12-14 07:52:00,
2013-12-14 02:02:00,2.0,-4.0,-100.00,East,88,2.0,6.0,74,0.00,,,0.03,0.000000,,2013-12-14 08:02:00,
2013-12-14 02:10:00,3.0,-3.0,-100.00,East,92,2.0,6.0,75,0.00,,,0.03,0.000000,,2013-12-14 08:10:00,
2013-12-14 02:42:00,3.0,-3.0,-100.00,East,92,2.0,6.0,75,0.00,,,0.03,0.000000,,2013-12-14 08:42:00,
2013-12-14 02:52:00,3.0,-3.0,-100.00,East,92,2.0,6.0,75,0.00,,,0.03,0.000000,,2013-12-14 08:52:00,
2013-12-14 03:02:00,3.0,-3.0,-100.00,East,92,2.0,6.0,75,0.00,,,0.03,0.000000,,2013-12-14 09:02:00,
2013-12-14 03:10:00,3.0,-3.0,-100.00,East,86,2.0,7.0,75,0.00,,,0.03,0.000000,,2013-12-14 09:10:00,
2013-12-14 03:44:00,3.0,-3.0,-100.00,East,86,2.0,7.0,75,0.00,,,0.03,0.000000,,2013-12-14 09:44:00,
2013-12-14 03:54:00,3.0,-3.0,-100.00,East,86,2.0,7.0,75,0.00,,,0.03,0.000000,,2013-12-14 09:54:00,
2013-12-14 04:03:00,3.0,-3.0,-100.00,East,86,2.0,7.0,75,0.00,,,0.03,0.000000,,2013-12-14 10:03:00,
2013-12-14 04:10:00,4.0,-1.0,-100.00,East,94,2.0,7.0,78,0.00,,,0.03,0.000000,,2013-12-14 10:10:00,
2013-12-14 04:43:00,4.0,-1.0,-100.00,East,94,2.0,7.0,78,0.00,,,0.03,0.000000,,2013-12-14 10:43:00,
2013-12-14 04:53:00,4.0,-1.0,-100.00,East,94,2.0,7.0,78,0.00,,,0.03,0.000000,,2013-12-14 10:53:00,
2013-12-14 05:03:00,4.0,-1.0,-100.00,East,94,2.0,7.0,78,0.00,,,0.03,0.000000,,2013-12-14 11:03:00,
2013-12-14 05:10:00,5.0,0.0,-100.00,East,91,3.0,10.0,78,0.00,,,0.03,0.000000,,2013-12-14 11:10:00,
2013-12-14 05:42:00,5.0,0.0,-100.00,East,91,3.0,10.0,78,0.00,,,0.03,0.000000,,2013-12-14 11:42:00,
2013-12-14 05:53:00,5.0,0.0,-100.00,East,91,3.0,10.0,78,0.00,,,0.03,0.000000,,2013-12-14 11:53:00,
2013-12-14 06:02:00,5.0,0.0,-100.00,East,91,3.0,10.0,78,0.00,,,0.03,0.000000,,2013-12-14 12:02:00,
2013-12-14 06:10:00,5.0,0.0,-100.00,East,94,2.0,9.0,78,0.00,,,0.03,0.000000,,2013-12-14 12:10:00,
2013-12-14 06:42:00,5.0,0.0,-100.00,East,94,2.0,9.0,78,0.00,,,0.03,0.000000,,2013-12-14 12:42:00,
2013-12-14 06:53:00,5.0,0.0,-100.00,East,94,2.0,9.0,78,0.00,,,0.03,0.000000,,2013-12-14 12:53:00,
2013-12-14 07:01:00,5.0,0.0,-100.00,East,94,2.0,9.0,78,0.00,,,0.03,0.000000,,2013-12-14 13:01:00,
2013-12-14 07:10:00,5.0,-1.0,-100.00,East,101,2.0,11.0,77,0.00,,,0.03,0.000000,,2013-12-14 13:10:00,
2013-12-14 07:42:00,5.0,-1.0,-100.00,East,101,2.0,11.0,77,0.00,,,0.03,0.000000,,2013-12-14 13:42:00,
2013-12-14 07:52:00,5.0,-1.0,-100.00,East,101,2.0,11.0,77,0.00,,,0.03,0.000000,,2013-12-14 13:52:00,
2013-12-14 08:01:00,5.0,-1.0,-100.00,East,101,2.0,11.0,77,0.00,,,0.03,0.000000,,2013-12-14 14:01:00,
2013-12-14 08:10:00,6.0,1.0,-100.00,ESE,112,2.0,9.0,78,0.00,,,0.03,0.000000,,2013-12-14 14:10:00,
2013-12-14 08:42:00,6.0,1.0,-100.00,ESE,112,2.0,9.0,78,0.00,,,0.03,0.000000,,2013-12-14 14:42:00,
2013-12-14 08:52:00,6.0,1.0,-100.00,ESE,112,2.0,9.0,78,0.00,,,0.03,0.000000,,2013-12-14 14:52:00,
2013-12-14 09:02:00,6.0,1.0,-100.00,ESE,112,2.0,9.0,78,0.00,,,0.03,0.000000,,2013-12-14 15:02:00,
2013-12-14 09:10:00,8.0,2.0,-100.00,East,87,3.0,8.0,77,0.00,,,0.03,5.000000,,2013-12-14 15:10:00,
2013-12-14 09:44:00,8.0,2.0,-100.00,East,87,3.0,8.0,77,0.00,,,0.03,5.000000,,2013-12-14 15:44:00,
2013-12-14 09:54:00,8.0,2.0,-100.00,East,87,3.0,8.0,77,0.00,,,0.03,5.000000,,2013-12-14 15:54:00,
2013-12-14 10:04:00,8.0,2.0,-100.00,East,87,3.0,8.0,77,0.00,,,0.03,5.000000,,2013-12-14 16:04:00,
2013-12-14 10:10:00,9.0,3.0,-100.00,ESE,106,2.0,7.0,76,0.01,,,-99.99,9.000000,,2013-12-14 16:10:00,
2013-12-14 10:43:00,9.0,3.0,-100.00,ESE,106,2.0,7.0,76,0.01,,,-99.99,9.000000,,2013-12-14 16:43:00,
2013-12-14 10:53:00,9.0,3.0,-100.00,ESE,106,2.0,7.0,76,0.01,,,-99.99,9.000000,,2013-12-14 16:53:00,
2013-12-14 11:03:00,9.0,3.0,-100.00,ESE,106,2.0,7.0,76,0.01,,,-99.99,9.000000,,2013-12-14 17:03:00,
2013-12-14 11:10:00,13.0,5.0,-100.00,East,92,3.0,6.0,71,0.00,,,0.04,22.000000,,2013-12-14 17:10:00,
2013-12-14 11:43:00,13.0,5.0,-100.00,East,92,3.0,6.0,71,0.00,,,0.04,22.000000,,2013-12-14 17:43:00,
2013-12-14 11:53:00,13.0,5.0,-100.00,East,92,3.0,6.0,71,0.00,,,0.04,22.000000,,2013-12-14 17:53:00,
2013-12-14 12:02:00,13.0,5.0,-100.00,East,92,3.0,6.0,71,0.00,,,0.04,22.000000,,2013-12-14 18:02:00,
2013-12-14 12:10:00,17.0,8.0,-100.00,SSE,152,3.0,7.0,68,0.00,,,0.02,30.000000,,2013-12-14 18:10:00,
2013-12-14 12:42:00,17.0,8.0,-100.00,SSE,152,3.0,7.0,68,0.00,,,0.02,30.000000,,2013-12-14 18:42:00,
2013-12-14 12:52:00,17.0,8.0,-100.00,SSE,152,3.0,7.0,68,0.00,,,0.02,30.000000,,2013-12-14 18:52:00,
2013-12-14 13:02:00,17.0,8.0,-100.00,SSE,152,3.0,7.0,68,0.00,,,0.02,30.000000,,2013-12-14 19:02:00,
2013-12-14 13:10:00,18.0,9.0,-100.00,East,86,1.0,6.0,68,0.00,,,0.01,25.000000,,2013-12-14 19:10:00,
2013-12-14 13:42:00,18.0,9.0,-100.00,East,86,1.0,6.0,68,0.00,,,0.01,25.000000,,2013-12-14 19:42:00,
2013-12-14 13:52:00,18.0,9.0,-100.00,East,86,1.0,6.0,68,0.00,,,0.01,25.000000,,2013-12-14 19:52:00,
2013-12-14 14:01:00,18.0,9.0,-100.00,East,86,1.0,6.0,68,0.00,,,0.01,25.000000,,2013-12-14 20:01:00,
2013-12-14 14:10:00,18.0,9.0,-100.00,East,100,1.0,7.0,68,0.00,,,0.01,32.000000,,2013-12-14 20:10:00,
2013-12-14 14:42:00,18.0,9.0,-100.00,East,100,1.0,7.0,68,0.00,,,0.01,32.000000,,2013-12-14 20:42:00,
2013-12-14 14:54:00,18.0,9.0,-100.00,East,100,1.0,7.0,68,0.00,,,0.01,32.000000,,2013-12-14 20:54:00,
2013-12-14 15:03:00,18.0,9.0,-100.00,East,100,1.0,7.0,68,0.00,,,0.01,32.000000,,2013-12-14 21:03:00,
2013-12-14 15:10:00,19.0,10.0,-100.00,North,-999,0.0,4.0,68,0.00,,,0.01,20.000000,,2013-12-14 21:10:00,
2013-12-14 15:44:00,19.0,10.0,-100.00,North,-999,0.0,4.0,68,0.00,,,0.01,20.000000,,2013-12-14 21:44:00,
2013-12-14 15:54:00,19.0,10.0,-100.00,North,-999,0.0,4.0,68,0.00,,,0.01,20.000000,,2013-12-14 21:54:00,
2013-12-14 16:03:00,19.0,10.0,-100.00,North,-999,0.0,4.0,68,0.00,,,0.01,20.000000,,2013-12-14 22:03:00,
2013-12-14 16:10:00,14.0,9.0,-100.00,North,-999,0.0,4.0,80,0.00,,,0.01,8.000000,,2013-12-14 22:10:00,
2013-12-14 16:43:00,14.0,9.0,-100.00,North,-999,0.0,4.0,80,0.00,,,0.01,8.000000,,2013-12-14 22:43:00,
2013-12-14 16:52:00,14.0,9.0,-100.00,North,-999,0.0,4.0,80,0.00,,,0.01,8.000000,,2013-12-14 22:52:00,
2013-12-14 17:02:00,14.0,9.0,-100.00,North,-999,0.0,4.0,80,0.00,,,0.01,8.000000,,2013-12-14 23:02:00,
2013-12-14 17:10:00,12.0,8.0,-100.00,North,-999,0.0,2.0,85,0.00,,,0.01,0.000000,,2013-12-14 23:10:00,
2013-12-14 17:43:00,12.0,8.0,-100.00,North,-999,0.0,2.0,85,0.00,,,0.01,0.000000,,2013-12-14 23:43:00,
2013-12-14 17:53:00,12.0,8.0,-100.00,North,-999,0.0,2.0,85,0.00,,,0.01,0.000000,,2013-12-14 23:53:00,
2013-12-14 18:02:00,12.0,8.0,-100.00,North,-999,0.0,2.0,85,0.00,,,0.01,0.000000,,2013-12-15 00:02:00,
2013-12-14 18:10:00,12.0,9.0,-100.00,North,-999,0.0,0.0,86,0.00,,,0.01,0.000000,,2013-12-15 00:10:00,
2013-12-14 18:42:00,12.0,9.0,-100.00,North,-999,0.0,0.0,86,0.00,,,0.01,0.000000,,2013-12-15 00:42:00,
2013-12-14 18:52:00,12.0,9.0,-100.00,North,-999,0.0,0.0,86,0.00,,,0.01,0.000000,,2013-12-15 00:52:00,
2013-12-14 19:01:00,12.0,9.0,-100.00,North,-999,0.0,0.0,86,0.00,,,0.01,0.000000,,2013-12-15 01:01:00,
2013-12-14 19:10:00,12.0,9.0,-100.00,North,-999,0.0,1.0,87,0.00,,,0.01,0.000000,,2013-12-15 01:10:00,
2013-12-14 19:42:00,12.0,9.0,-100.00,North,-999,0.0,1.0,87,0.00,,,0.01,0.000000,,2013-12-15 01:42:00,
2013-12-14 19:52:00,12.0,9.0,-100.00,North,-999,0.0,1.0,87,0.00,,,0.01,0.000000,,2013-12-15 01:52:00,
2013-12-14 20:01:00,12.0,9.0,-100.00,North,-999,0.0,1.0,87,0.00,,,0.01,0.000000,,2013-12-15 02:01:00,
2013-12-14 20:10:00,12.0,9.0,-100.00,North,-999,0.0,2.0,87,0.01,,,-99.99,0.000000,,2013-12-15 02:10:00,
2013-12-14 20:42:00,12.0,9.0,-100.00,North,-999,0.0,2.0,87,0.01,,,-99.99,0.000000,,2013-12-15 02:42:00,
2013-12-14 20:52:00,12.0,9.0,-100.00,North,-999,0.0,2.0,87,0.01,,,-99.99,0.000000,,2013-12-15 02:52:00,
2013-12-14 21:02:00,12.0,9.0,-100.00,North,-999,0.0,2.0,87,0.01,,,-99.99,0.000000,,2013-12-15 03:02:00,
2013-12-14 21:10:00,12.0,9.0,-100.00,North,-999,0.0,1.0,87,0.00,,,0.02,0.000000,,2013-12-15 03:10:00,
2013-12-14 21:43:00,12.0,9.0,-100.00,North,-999,0.0,1.0,87,0.00,,,0.02,0.000000,,2013-12-15 03:43:00,
2013-12-14 21:54:00,12.0,9.0,-100.00,North,-999,0.0,1.0,87,0.00,,,0.02,0.000000,,2013-12-15 03:54:00,
2013-12-14 22:02:00,-999.0,-99.9,-100.00,North,-999,0.0,1.0,-999,0.00,,,0.02,0.000000,,2013-12-15 04:02:00,
2013-12-14 22:10:00,13.0,10.0,-100.00,West,264,1.0,5.0,86,0.00,,,0.02,0.000000,,2013-12-15 04:10:00,
2013-12-14 22:43:00,13.0,10.0,-100.00,West,264,1.0,5.0,86,0.00,,,0.02,0.000000,,2013-12-15 04:43:00,
2013-12-14 22:53:00,13.0,10.0,-100.00,West,264,1.0,5.0,86,0.00,,,0.02,0.000000,,2013-12-15 04:53:00,
2013-12-14 23:02:00,13.0,10.0,-100.00,West,264,1.0,5.0,86,0.00,,,0.02,0.000000,,2013-12-15 05:02:00,
2013-12-14 23:10:00,12.0,8.0,-100.00,NW,307,3.0,8.0,82,0.00,,,0.02,0.000000,,2013-12-15 05:10:00,
2013-12-14 23:42:00,12.0,8.0,-100.00,NW,307,3.0,8.0,82,0.00,,,0.02,0.000000,,2013-12-15 05:42:00,
2013-12-14 23:53:00,12.0,8.0,-100.00,NW,307,3.0,8.0,82,0.00,,,0.02,0.000000,,2013-12-15 05:53:00,